Maxwelton, West Virginia
Current Conditions -  °F | °C
As of 11:15 PM on Sunday 25 Jan 2015 (Local Time) from KLWB Reporting Station
Overcast Overcast  
Wind Chill: 30°   Ceiling: 5000
Heat Index: 36°   Visibility: 7mi
Dew Point: 33°   Wind: 8mph
Humidity: 89%   Direction: 30°NNE
Pressure: 29.71"   Gusts: NA
Location:  37.87°N, 80.41°W
Report Text: KLWB 260415Z AUTO 03007KT 7SM OVC050 02/01 A2971 RMK AO2 T00230007
Loading
Personal Weather Stations






























Interactive Weather Map New forecast layout! Learn more

10-Day Weather Forecast

Advertisements
Track Severe Weather on mobile